Time;durP1;ratioP1;P1;durP2;ratioP2;P2;SDS_P1;SDS_P2;PMS_P1;PMS_P2;Temp;Humidity;BMP_temperature;BMP_pressure;BME280_temperature;BME280_humidity;BME280_pressure;Samples;Min_cycle;Max_cycle;Signal;HPM_P1;HPM_P2
2023/10/12 00:02:09;;;;;;;7.33;4.10;;;20.00;89.30;;;;;;5068071;28;20950;-71
2023/10/12 00:04:43;;;;;;;20.37;4.60;;;20.00;89.00;;;;;;5068383;28;20460;-71
2023/10/12 00:07:16;;;;;;;8.10;4.20;;;20.10;90.00;;;;;;5051056;28;20598;-71
2023/10/12 00:10:01;;;;;;;8.00;3.43;;;20.10;89.10;;;;;;5068236;28;20882;-71
2023/10/12 00:12:29;;;;;;;10.33;4.40;;;20.10;90.00;;;;;;5068733;28;20466;-71
2023/10/12 00:14:55;;;;;;;11.63;3.73;;;20.00;89.40;;;;;;5068159;28;20950;-72
2023/10/12 00:17:24;;;;;;;11.13;4.63;;;20.00;88.90;;;;;;5066577;28;20418;-71
2023/10/12 00:19:53;;;;;;;6.43;3.90;;;20.10;88.90;;;;;;5068080;28;20458;-71
2023/10/12 00:22:19;;;;;;;7.53;4.40;;;20.00;90.00;;;;;;5068029;28;20421;-71
2023/10/12 00:24:45;;;;;;;12.07;4.50;;;20.00;89.80;;;;;;5067960;28;20979;-71
2023/10/12 00:27:13;;;;;;;11.03;4.13;;;20.00;89.80;;;;;;5066573;28;20471;-71
2023/10/12 00:29:40;;;;;;;8.10;4.20;;;20.00;89.40;;;;;;5068003;28;20190;-71
2023/10/12 00:32:07;;;;;;;9.47;3.70;;;19.90;90.00;;;;;;5067966;28;20860;-71
2023/10/12 00:34:45;;;;;;;12.30;4.77;;;19.80;90.30;;;;;;5068032;28;20425;-71
2023/10/12 00:37:11;;;;;;;10.03;4.80;;;19.70;90.50;;;;;;5067995;28;20765;-71
2023/10/12 00:42:18;;;;;;;7.67;4.37;;;19.40;91.10;;;;;;5066863;28;20193;-71
2023/10/12 00:44:52;;;;;;;8.83;4.60;;;19.20;90.70;;;;;;5066271;28;20486;-71
2023/10/12 00:50:11;;;;;;;9.50;5.13;;;19.30;93.00;;;;;;5067834;28;20504;-71
2023/10/12 00:52:52;;;;;;;11.83;4.50;;;19.40;94.30;;;;;;5066627;28;20522;-71
2023/10/12 00:55:21;;;;;;;11.23;4.43;;;19.50;91.80;;;;;;5067758;28;20945;-71
2023/10/12 00:57:50;;;;;;;7.63;4.73;;;19.60;91.10;;;;;;5067803;28;20427;-71
2023/10/12 01:00:17;;;;;;;8.13;4.33;;;19.40;91.60;;;;;;5066544;28;20413;-71
2023/10/12 01:02:45;;;;;;;8.27;4.43;;;19.50;91.80;;;;;;5067408;28;20449;-71
2023/10/12 01:05:11;;;;;;;11.03;4.87;;;19.50;91.50;;;;;;5067616;28;20646;-71
2023/10/12 01:07:37;;;;;;;10.33;4.53;;;19.60;91.00;;;;;;5066560;28;20861;-71
2023/10/12 01:10:10;;;;;;;6.33;4.47;;;19.60;92.10;;;;;;5067615;28;20435;-71
2023/10/12 01:12:37;;;;;;;13.03;4.37;;;19.60;92.70;;;;;;5067689;28;20452;-71
2023/10/12 01:15:08;;;;;;;9.47;4.13;;;19.60;94.30;;;;;;5067652;28;20425;-71
2023/10/12 01:17:37;;;;;;;11.87;5.00;;;19.60;90.80;;;;;;5067719;28;20447;-71
2023/10/12 01:20:17;;;;;;;11.07;4.70;;;19.60;90.70;;;;;;5068169;28;20875;-71
2023/10/12 01:22:42;;;;;;;7.20;3.90;;;19.70;92.90;;;;;;5068678;28;20435;-71
2023/10/12 01:25:19;;;;;;;11.30;4.20;;;19.70;92.00;;;;;;5070351;28;20511;-71
2023/10/12 01:27:46;;;;;;;5.10;3.90;;;19.70;91.50;;;;;;5071826;28;20188;-71
2023/10/12 01:30:21;;;;;;;9.97;4.37;;;19.80;91.80;;;;;;5069920;28;20939;-71
2023/10/12 01:32:54;;;;;;;10.17;4.73;;;19.70;92.40;;;;;;5071607;28;20432;-71
2023/10/12 01:35:30;;;;;;;8.90;5.00;;;19.60;91.90;;;;;;5071380;28;20461;-71
2023/10/12 01:38:00;;;;;;;10.37;3.60;;;19.60;92.50;;;;;;5054693;28;20489;-71
2023/10/12 01:40:27;;;;;;;11.00;4.70;;;19.50;92.00;;;;;;5071349;28;20462;-71
2023/10/12 01:42:56;;;;;;;12.63;4.40;;;19.40;92.20;;;;;;5071059;28;20469;-71
2023/10/12 01:50:37;;;;;;;7.47;4.73;;;19.50;88.00;;;;;;5070976;28;20869;-71
2023/10/12 01:55:51;;;;;;;14.23;4.20;;;19.40;89.70;;;;;;5070780;28;20990;-71
2023/10/12 01:58:23;;;;;;;9.97;3.83;;;19.20;88.90;;;;;;5070992;28;20907;-71
2023/10/12 02:00:52;;;;;;;10.83;4.20;;;19.30;86.40;;;;;;5069230;28;20458;-71
2023/10/12 02:03:21;;;;;;;9.60;4.70;;;19.20;89.20;;;;;;5052649;28;20478;-71
2023/10/12 02:05:58;;;;;;;7.00;3.90;;;19.10;88.00;;;;;;5070371;28;20544;-71
2023/10/12 02:08:35;;;;;;;10.10;3.90;;;19.00;88.70;;;;;;5070425;28;20478;-71
2023/10/12 02:11:07;;;;;;;7.40;3.77;;;18.90;89.10;;;;;;5070477;28;20922;-71
2023/10/12 02:13:36;;;;;;;25.50;5.30;;;19.20;86.90;;;;;;5070280;28;20877;-71
2023/10/12 02:16:07;;;;;;;5.87;3.80;;;19.20;89.80;;;;;;5068796;28;20459;-71
2023/10/12 02:18:34;;;;;;;13.30;4.27;;;19.20;90.20;;;;;;5068697;28;20433;-71
2023/10/12 02:21:08;;;;;;;12.77;4.57;;;19.10;90.50;;;;;;5070045;28;20421;-71
2023/10/12 02:31:38;;;;;;;16.60;4.50;;;19.10;89.80;;;;;;5070358;28;20941;-71
2023/10/12 02:34:05;;;;;;;10.30;4.00;;;19.00;90.20;;;;;;5068172;28;20965;-71
2023/10/12 02:36:31;;;;;;;9.23;3.97;;;18.80;90.50;;;;;;5068718;28;20940;-72
2023/10/12 02:39:10;;;;;;;11.97;4.07;;;18.80;90.50;;;;;;5069789;28;20427;-71
2023/10/12 02:41:44;;;;;;;9.10;4.07;;;18.70;91.30;;;;;;5069958;28;20194;-71
2023/10/12 02:44:14;;;;;;;7.60;4.40;;;18.70;91.30;;;;;;5069561;28;20476;-71
2023/10/12 02:46:42;;;;;;;11.93;3.70;;;18.70;92.30;;;;;;5069448;28;20490;-71
2023/10/12 02:49:08;;;;;;;11.60;4.03;;;18.70;91.70;;;;;;5067930;28;20437;-71
2023/10/12 02:51:37;;;;;;;11.40;4.37;;;18.80;91.90;;;;;;5068309;28;20429;-71
2023/10/12 02:54:04;;;;;;;10.17;4.30;;;19.00;91.30;;;;;;5069391;28;20892;-71
2023/10/12 02:56:31;;;;;;;7.83;4.37;;;19.00;91.00;;;;;;5067794;28;21001;-71
2023/10/12 02:59:03;;;;;;;7.83;4.60;;;18.90;91.90;;;;;;5051703;28;20984;-72
2023/10/12 03:01:29;;;;;;;9.20;4.10;;;19.00;91.40;;;;;;5069453;28;20491;-71
2023/10/12 03:03:56;;;;;;;8.93;3.67;;;19.30;89.20;;;;;;5069315;28;20504;-71
2023/10/12 03:06:23;;;;;;;9.80;3.60;;;19.40;88.30;;;;;;5067881;28;20868;-71
2023/10/12 03:09:14;;;;;;;9.87;4.57;;;19.60;86.60;;;;;;5069467;28;20431;-71
2023/10/12 03:11:42;;;;;;;13.43;3.80;;;19.50;88.10;;;;;;5069424;28;20478;-71
2023/10/12 03:14:16;;;;;;;7.73;3.33;;;19.30;89.20;;;;;;5069250;28;20512;-72
2023/10/12 03:16:42;;;;;;;13.40;4.30;;;19.20;90.40;;;;;;5069243;28;20459;-71
2023/10/12 03:19:21;;;;;;;9.70;3.60;;;19.00;90.60;;;;;;5069286;28;20427;-71
2023/10/12 03:21:47;;;;;;;6.80;3.23;;;19.00;92.40;;;;;;5067996;28;20524;-71
2023/10/12 03:24:15;;;;;;;10.80;3.83;;;18.90;92.50;;;;;;5069091;28;20457;-71
2023/10/12 03:26:40;;;;;;;6.37;3.67;;;18.90;92.20;;;;;;5068985;28;20433;-71
2023/10/12 03:29:18;;;;;;;9.37;3.67;;;18.80;91.80;;;;;;5069068;28;20483;-71
2023/10/12 03:37:13;;;;;;;5.50;3.77;;;19.00;90.20;;;;;;5052316;28;20453;-71
2023/10/12 03:39:59;;;;;;;10.57;4.50;;;19.30;90.20;;;;;;5067240;28;20425;-71
2023/10/12 03:45:08;;;;;;;6.70;3.73;;;19.40;90.80;;;;;;5066485;28;20468;-71
2023/10/12 03:47:55;;;;;;;13.60;4.50;;;19.50;90.50;;;;;;5068779;28;20804;-71
2023/10/12 03:50:21;;;;;;;7.70;3.67;;;19.40;91.10;;;;;;5068805;28;20884;-71
2023/10/12 03:52:53;;;;;;;13.50;4.40;;;19.20;91.50;;;;;;5068560;28;20429;-71
2023/10/12 03:55:26;;;;;;;7.67;3.93;;;19.20;91.50;;;;;;5068598;28;20473;-72
2023/10/12 03:58:14;;;;;;;10.87;4.17;;;19.10;92.40;;;;;;5067329;28;20434;-71
2023/10/12 04:01:05;;;;;;;5.87;3.83;;;18.90;94.00;;;;;;5068479;28;20413;-71
2023/10/12 04:03:38;;;;;;;13.10;3.97;;;18.80;93.80;;;;;;5067507;28;20464;-71
2023/10/12 04:06:15;;;;;;;10.13;3.63;;;18.70;91.10;;;;;;5066722;28;20550;-71
2023/10/12 04:08:52;;;;;;;10.07;4.13;;;18.70;91.30;;;;;;5068447;28;20869;-71
2023/10/12 04:18:42;;;;;;;13.60;4.60;;;18.60;90.70;;;;;;5068206;28;20432;-72
2023/10/12 04:21:23;;;;;;;6.50;3.80;;;18.60;91.00;;;;;;5066656;28;20986;-71
2023/10/12 04:29:13;;;;;;;9.37;4.13;;;18.60;91.40;;;;;;5068225;28;20418;-71
2023/10/12 04:34:10;;;;;;;7.40;4.20;;;19.00;90.90;;;;;;5068158;28;20424;-71
2023/10/12 04:39:26;;;;;;;9.90;4.30;;;19.00;91.60;;;;;;5068280;28;20832;-71
2023/10/12 04:46:59;;;;;;;6.70;4.53;;;18.60;93.10;;;;;;5068039;28;20463;-70
2023/10/12 04:57:17;;;;;;;11.87;4.30;;;18.40;94.10;;;;;;5070968;28;21250;-71
2023/10/12 05:00:00;;;;;;;7.60;4.60;;;18.40;95.20;;;;;;5070552;28;20496;-72
2023/10/12 05:02:41;;;;;;;11.27;5.00;;;18.40;97.10;;;;;;5071618;28;20441;-71
2023/10/12 05:07:53;;;;;;;7.67;4.17;;;18.70;97.20;;;;;;5071868;28;20412;-71
2023/10/12 05:10:26;;;;;;;8.33;4.43;;;18.60;98.10;;;;;;5071308;28;20433;-71
2023/10/12 05:13:03;;;;;;;8.53;4.80;;;18.50;97.50;;;;;;5071670;28;20841;-71
2023/10/12 05:15:39;;;;;;;9.47;4.13;;;18.60;96.70;;;;;;5071415;28;20864;-71
2023/10/12 05:18:06;;;;;;;11.20;4.90;;;18.60;96.00;;;;;;5070181;28;20416;-71
2023/10/12 05:20:31;;;;;;;11.50;4.27;;;18.50;96.60;;;;;;5069910;28;20436;-72
2023/10/12 05:22:58;;;;;;;15.90;5.13;;;18.50;97.00;;;;;;5071492;28;20515;-71
2023/10/12 05:25:32;;;;;;;12.67;5.00;;;18.70;98.30;;;;;;5071327;28;20248;-71
2023/10/12 05:28:14;;;;;;;12.97;5.10;;;18.60;97.30;;;;;;5071269;28;20412;-71
2023/10/12 05:31:20;;;;;;;12.30;4.27;;;18.60;97.10;;;;;;5070186;28;20941;-71
2023/10/12 05:33:39;;;;;;;13.60;5.10;;;18.70;97.90;;;;;;5068787;28;20836;-71
2023/10/12 05:36:14;;;;;;;14.70;4.07;;;18.80;97.50;;;;;;5071098;28;20583;-71
2023/10/12 05:39:11;;;;;;;12.07;4.43;;;18.70;97.70;;;;;;5071197;28;20425;-72
2023/10/12 05:41:38;;;;;;;11.83;5.10;;;18.70;97.80;;;;;;5071095;28;20421;-71
2023/10/12 05:44:08;;;;;;;9.30;5.50;;;18.70;97.60;;;;;;5069503;28;20492;-71
2023/10/12 05:46:38;;;;;;;10.70;4.90;;;18.70;97.60;;;;;;5069633;28;20498;-71
2023/10/12 05:49:13;;;;;;;9.07;3.60;;;18.70;98.10;;;;;;5071099;28;20424;-71
2023/10/12 05:51:45;;;;;;;12.90;4.67;;;18.90;96.30;;;;;;5070920;28;20910;-71
2023/10/12 05:54:18;;;;;;;11.97;4.17;;;19.00;95.90;;;;;;5070941;28;20948;-71
2023/10/12 05:56:44;;;;;;;10.43;4.43;;;19.00;96.30;;;;;;5070744;28;20441;-71
2023/10/12 05:59:14;;;;;;;10.00;4.10;;;18.90;97.00;;;;;;5052559;28;20429;-72
2023/10/12 06:01:45;;;;;;;9.57;5.03;;;18.80;96.80;;;;;;5068888;28;20198;-71
2023/10/12 06:04:14;;;;;;;10.17;4.60;;;18.80;97.10;;;;;;5069205;28;20491;-71
2023/10/12 06:06:43;;;;;;;9.97;4.17;;;18.80;97.10;;;;;;5070549;28;20954;-71
2023/10/12 06:09:13;;;;;;;13.40;4.67;;;18.90;96.70;;;;;;5070079;28;20504;-70
2023/10/12 06:11:44;;;;;;;14.00;4.63;;;18.90;96.50;;;;;;5070539;28;20417;-71
2023/10/12 06:14:12;;;;;;;11.93;4.50;;;19.00;95.70;;;;;;5069125;28;20426;-72
2023/10/12 06:16:40;;;;;;;18.40;4.20;;;19.10;95.40;;;;;;5070485;28;21012;-71
2023/10/12 06:19:21;;;;;;;16.23;4.83;;;19.20;94.70;;;;;;5068967;28;20518;-70
2023/10/12 06:21:50;;;;;;;13.57;4.63;;;19.20;94.50;;;;;;5070512;28;20414;-71
2023/10/12 06:24:35;;;;;;;9.47;4.10;;;19.20;94.20;;;;;;5069146;28;20511;-71
2023/10/12 06:27:22;;;;;;;13.37;4.77;;;19.30;94.30;;;;;;5070738;28;20565;-71
2023/10/12 06:29:50;;;;;;;9.80;3.63;;;19.30;94.20;;;;;;5069768;28;20445;-71
2023/10/12 06:32:48;;;;;;;9.30;4.03;;;19.40;93.00;;;;;;5069313;28;20900;-71
2023/10/12 06:45:38;;;;;;;11.13;5.20;;;19.60;93.60;;;;;;5070975;28;20431;-71
2023/10/12 06:48:23;;;;;;;12.27;5.00;;;20.00;96.60;;;;;;5068696;28;20482;-71
2023/10/12 06:50:53;;;;;;;22.03;4.50;;;20.10;99.60;;;;;;5070256;28;20425;-71
2023/10/12 06:53:24;;;;;;;11.83;5.07;;;20.20;98.20;;;;;;5068450;28;20587;-71
2023/10/12 06:55:58;;;;;;;7.90;4.10;;;20.30;98.50;;;;;;5069776;28;20445;-71
2023/10/12 06:58:36;;;;;;;10.80;4.33;;;20.20;99.10;;;;;;5068366;28;20413;-71
2023/10/12 07:01:26;;;;;;;13.37;4.37;;;20.20;97.90;;;;;;5068550;28;20453;-71
2023/10/12 07:03:53;;;;;;;12.27;4.27;;;20.20;97.40;;;;;;5068223;28;20468;-71
2023/10/12 07:06:19;;;;;;;18.70;5.00;;;20.30;96.40;;;;;;5066983;28;20428;-71
2023/10/12 07:08:46;;;;;;;16.30;4.60;;;20.50;96.10;;;;;;5068197;28;20416;-71
2023/10/12 07:11:17;;;;;;;9.97;4.33;;;20.50;97.10;;;;;;5068236;28;20736;-71
2023/10/12 07:13:45;;;;;;;11.17;4.97;;;20.50;96.40;;;;;;5066796;28;20448;-70
2023/10/12 07:16:20;;;;;;;10.63;3.70;;;20.50;95.70;;;;;;5067928;28;20445;-71
2023/10/12 07:18:49;;;;;;;9.83;4.50;;;20.60;96.00;;;;;;5068065;28;21060;-71
2023/10/12 07:21:21;;;;;;;7.67;4.70;;;20.60;97.70;;;;;;5067347;28;20413;-71
2023/10/12 07:23:57;;;;;;;8.77;5.57;;;20.70;96.70;;;;;;5068134;28;20986;-71
2023/10/12 07:26:30;;;;;;;10.20;4.63;;;20.90;96.50;;;;;;5066354;28;20825;-71
2023/10/12 07:28:56;;;;;;;12.93;4.53;;;21.00;94.80;;;;;;5068079;28;20409;-69
2023/10/12 07:34:16;;;;;;;9.43;4.57;;;21.30;95.40;;;;;;5053585;28;20433;-70
2023/10/12 07:36:52;;;;;;;11.00;4.40;;;21.40;95.30;;;;;;5067961;28;20491;-70
2023/10/12 07:42:05;;;;;;;12.70;3.83;;;21.60;92.60;;;;;;5068264;28;20501;-71
2023/10/12 07:44:43;;;;;;;10.97;4.17;;;21.80;94.10;;;;;;5068046;28;20514;-69
2023/10/12 07:47:19;;;;;;;9.93;4.57;;;21.90;94.60;;;;;;5067461;28;20511;-70
2023/10/12 07:49:49;;;;;;;14.90;4.27;;;22.00;94.00;;;;;;5066292;28;20450;-70
2023/10/12 07:54:47;;;;;;;11.20;4.17;;;22.30;93.20;;;;;;5068019;28;20425;-70
2023/10/12 07:57:14;;;;;;;6.97;3.67;;;22.40;93.50;;;;;;5065989;28;20475;-70
2023/10/12 08:02:42;;;;;;;17.30;4.47;;;22.70;93.40;;;;;;5067348;28;20446;-70
2023/10/12 08:15:56;;;;;;;8.07;5.00;;;23.00;91.10;;;;;;5066890;28;20501;-70
2023/10/12 08:21:24;;;;;;;9.73;4.60;;;23.10;91.00;;;;;;5067270;28;20933;-70
2023/10/12 08:24:09;;;;;;;8.33;4.50;;;23.20;89.70;;;;;;5066945;28;20856;-70
2023/10/12 08:30:10;;;;;;;12.20;4.67;;;23.30;90.40;;;;;;5065679;28;20435;-70
2023/10/12 08:39:39;;;;;;;11.80;4.40;;;22.90;90.40;;;;;;5071193;28;20460;-69
2023/10/12 08:44:51;;;;;;;9.50;4.63;;;22.80;90.00;;;;;;5070917;28;20481;-69
2023/10/12 08:47:40;;;;;;;13.03;4.80;;;22.80;90.80;;;;;;5071164;28;20411;-70
2023/10/12 08:52:50;;;;;;;7.47;4.80;;;22.80;91.00;;;;;;5070758;28;20426;-70
2023/10/12 08:55:19;;;;;;;14.07;4.33;;;22.80;91.90;;;;;;5070758;28;20435;-69
2023/10/12 08:58:03;;;;;;;9.47;5.00;;;22.80;91.60;;;;;;5069256;28;20434;-71
2023/10/12 09:03:04;;;;;;;9.40;4.30;;;22.80;91.40;;;;;;5070544;28;20941;-71
2023/10/12 09:05:30;;;;;;;11.90;5.03;;;22.80;91.40;;;;;;5070669;28;20447;-72
2023/10/12 09:08:08;;;;;;;14.93;5.80;;;22.80;91.80;;;;;;5070807;28;20999;-72
2023/10/12 09:10:51;;;;;;;11.50;5.30;;;22.70;90.10;;;;;;5069278;28;20490;-72
2023/10/12 09:13:21;;;;;;;11.17;5.90;;;22.70;91.50;;;;;;5070755;28;20394;-74
2023/10/12 09:15:54;;;;;;;12.43;4.63;;;22.60;91.90;;;;;;5069150;28;20989;-74
2023/10/12 09:18:24;;;;;;;16.67;5.50;;;22.60;90.50;;;;;;5070564;28;20876;-74
2023/10/12 09:23:28;;;;;;;10.73;4.43;;;22.60;90.70;;;;;;5072209;28;20999;-73
2023/10/12 09:31:14;;;;;;;7.17;5.07;;;22.70;90.30;;;;;;5070417;28;20506;-72
2023/10/12 09:36:28;;;;;;;6.27;5.23;;;22.70;91.00;;;;;;5069837;28;20865;-73
2023/10/12 09:38:57;;;;;;;9.83;5.00;;;22.70;91.50;;;;;;5070097;28;20418;-72
2023/10/12 09:41:27;;;;;;;8.40;4.90;;;22.80;90.90;;;;;;5070035;28;20418;-73
2023/10/12 09:43:56;;;;;;;13.40;5.80;;;22.90;91.40;;;;;;5069243;28;20961;-73
2023/10/12 09:46:27;;;;;;;6.30;4.60;;;22.90;90.20;;;;;;5070003;28;20550;-74
2023/10/12 09:49:06;;;;;;;12.10;5.10;;;23.00;90.00;;;;;;5070339;28;20431;-73
2023/10/12 09:51:36;;;;;;;9.50;5.20;;;23.10;90.00;;;;;;5070286;28;20442;-73
2023/10/12 09:54:05;;;;;;;10.80;5.33;;;23.00;89.80;;;;;;5070437;28;20926;-72
2023/10/12 09:56:44;;;;;;;10.37;5.23;;;23.00;91.10;;;;;;5070000;28;20488;-73
2023/10/12 09:59:14;;;;;;;11.17;4.97;;;22.90;91.80;;;;;;5070238;28;20457;-73
2023/10/12 10:09:38;;;;;;;9.30;5.00;;;22.90;87.60;;;;;;5069448;28;20412;-73
2023/10/12 10:12:08;;;;;;;13.23;5.30;;;23.00;90.30;;;;;;5068072;28;20423;-73
2023/10/12 10:14:36;;;;;;;13.23;5.40;;;23.10;91.40;;;;;;5068114;28;20816;-73
2023/10/12 10:17:02;;;;;;;10.50;4.97;;;23.20;89.70;;;;;;5068084;28;20969;-74
2023/10/12 10:19:32;;;;;;;10.53;5.00;;;23.30;87.30;;;;;;5067663;28;20522;-74
2023/10/12 10:22:05;;;;;;;7.27;4.00;;;23.40;90.60;;;;;;5051554;28;20430;-74
2023/10/12 10:24:58;;;;;;;9.33;5.30;;;23.60;91.70;;;;;;5067994;28;20515;-72
2023/10/12 10:27:34;;;;;;;9.60;5.37;;;23.70;92.10;;;;;;5069288;28;20415;-73
2023/10/12 10:30:36;;;;;;;8.27;4.40;;;23.70;91.30;;;;;;5069064;28;20418;-73
2023/10/12 10:33:08;;;;;;;13.40;5.07;;;23.70;90.50;;;;;;5069528;28;21156;-74
2023/10/12 10:36:24;;;;;;;12.27;4.83;;;23.70;91.90;;;;;;5068778;28;20452;-72
2023/10/12 10:41:18;;;;;;;11.93;4.90;;;23.60;92.40;;;;;;5068456;28;20502;-72
2023/10/12 10:43:45;;;;;;;14.80;5.67;;;23.50;91.80;;;;;;5068631;28;20491;-72
2023/10/12 10:46:13;;;;;;;9.13;5.10;;;23.50;93.10;;;;;;5050268;28;20459;-73
2023/10/12 10:48:40;;;;;;;12.30;5.53;;;23.50;91.40;;;;;;5068761;28;20415;-75
2023/10/12 10:52:02;;;;;;;13.17;5.00;;;23.40;91.70;;;;;;5068907;28;20424;-75
2023/10/12 10:53:52;;;;;;;11.23;5.57;;;23.50;92.00;;;;;;5060539;28;20444;-75
2023/10/12 10:56:34;;;;;;;16.50;5.13;;;23.40;92.40;;;;;;5068415;28;20557;-75
2023/10/12 10:59:00;;;;;;;17.70;4.63;;;23.50;92.80;;;;;;5068495;28;20266;-76
2023/10/12 11:01:26;;;;;;;6.60;4.60;;;23.50;90.90;;;;;;5066806;28;20891;-75
2023/10/12 11:03:53;;;;;;;14.00;5.23;;;23.40;93.20;;;;;;5068657;28;20542;-74
2023/10/12 11:06:21;;;;;;;13.03;5.73;;;23.40;91.50;;;;;;5068140;28;20679;-75
2023/10/12 11:11:58;;;;;;;7.70;5.30;;;23.60;91.20;;;;;;5044757;28;20428;-75
2023/10/12 11:14:25;;;;;;;8.00;4.97;;;23.60;91.70;;;;;;5068287;28;21034;-75
2023/10/12 11:16:51;;;;;;;11.33;4.60;;;23.60;91.50;;;;;;5068187;28;20483;-75
2023/10/12 11:19:23;;;;;;;7.60;4.97;;;23.70;92.10;;;;;;5067164;28;20437;-75
2023/10/12 11:21:52;;;;;;;13.63;5.50;;;23.80;91.70;;;;;;5067021;28;20960;-75
2023/10/12 11:24:18;;;;;;;14.53;5.40;;;23.80;93.40;;;;;;5067919;28;20461;-76
2023/10/12 11:26:55;;;;;;;10.20;4.50;;;23.90;90.80;;;;;;5066495;28;20442;-75
2023/10/12 11:29:24;;;;;;;12.60;4.73;;;24.00;92.50;;;;;;5067916;28;20423;-75
2023/10/12 11:32:16;;;;;;;14.83;5.07;;;24.00;93.00;;;;;;5067993;28;20421;-76
2023/10/12 11:34:44;;;;;;;11.70;5.77;;;24.00;91.70;;;;;;5067827;28;20431;-76
2023/10/12 11:37:13;;;;;;;8.10;4.70;;;24.00;92.50;;;;;;5067634;28;20515;-76
2023/10/12 11:39:52;;;;;;;14.30;5.90;;;24.00;92.70;;;;;;5066390;28;20937;-76
2023/10/12 11:42:18;;;;;;;8.23;4.80;;;24.00;92.40;;;;;;5066295;28;20431;-76
2023/10/12 11:44:48;;;;;;;8.90;5.10;;;23.90;91.50;;;;;;5067502;28;20472;-75
2023/10/12 11:47:25;;;;;;;18.83;4.90;;;23.90;90.50;;;;;;5066021;28;20212;-74
2023/10/12 11:49:55;;;;;;;10.70;5.07;;;23.80;90.40;;;;;;5067877;28;20420;-74
2023/10/12 11:52:33;;;;;;;14.57;5.23;;;23.60;92.40;;;;;;5067330;28;20798;-75
2023/10/12 11:55:06;;;;;;;10.57;4.63;;;23.60;94.10;;;;;;5065857;28;20439;-75
2023/10/12 11:57:37;;;;;;;10.93;4.70;;;23.50;93.30;;;;;;5067455;28;20421;-75
2023/10/12 12:00:20;;;;;;;14.70;5.23;;;23.40;93.00;;;;;;5067785;28;20497;-74
2023/10/12 12:02:48;;;;;;;12.83;4.60;;;23.40;91.20;;;;;;5067698;28;20472;-75
2023/10/12 12:05:13;;;;;;;19.93;4.53;;;23.40;93.10;;;;;;5067466;28;20471;-74
2023/10/12 12:07:39;;;;;;;12.90;5.80;;;23.50;93.20;;;;;;5067535;28;20953;-75
2023/10/12 12:10:07;;;;;;;9.37;4.77;;;23.50;90.90;;;;;;5067771;28;20198;-75
2023/10/12 12:12:38;;;;;;;10.50;4.20;;;23.60;90.80;;;;;;5068046;28;20187;-74
2023/10/12 12:15:04;;;;;;;6.17;3.93;;;23.60;90.30;;;;;;5068103;28;20417;-75
2023/10/12 12:17:30;;;;;;;8.47;4.67;;;23.60;91.30;;;;;;5066429;28;20445;-75
2023/10/12 12:19:56;;;;;;;8.93;4.53;;;23.60;91.50;;;;;;5067937;28;20421;-75
2023/10/12 12:22:25;;;;;;;7.07;4.40;;;23.80;90.60;;;;;;5066577;28;20186;-74
2023/10/12 12:24:51;;;;;;;9.00;4.20;;;23.80;90.00;;;;;;5050219;28;20869;-75
2023/10/12 12:30:01;;;;;;;12.57;4.23;;;23.80;88.00;;;;;;5066222;28;20197;-75
2023/10/12 12:32:27;;;;;;;9.67;4.57;;;23.90;89.00;;;;;;5067326;28;20460;-75
2023/10/12 12:34:54;;;;;;;8.60;4.60;;;23.90;87.40;;;;;;5065733;28;20867;-75
2023/10/12 12:37:20;;;;;;;13.20;4.23;;;24.00;88.50;;;;;;5066031;28;20189;-77
2023/10/12 12:40:27;;;;;;;10.00;5.23;;;24.10;87.70;;;;;;5067316;28;20424;-75
2023/10/12 12:42:37;;;;;;;11.97;5.10;;;24.30;88.20;;;;;;5067009;28;20930;-76
2023/10/12 12:45:03;;;;;;;7.30;4.40;;;24.30;87.00;;;;;;5066983;28;20471;-76
2023/10/12 12:47:32;;;;;;;11.83;4.27;;;24.40;86.80;;;;;;5048909;28;20187;-76
2023/10/12 12:50:01;;;;;;;8.27;4.80;;;24.30;86.20;;;;;;5049211;28;20545;-75
2023/10/12 12:52:26;;;;;;;8.63;4.27;;;24.10;84.90;;;;;;5067209;28;20967;-76
2023/10/12 12:54:52;;;;;;;8.57;4.80;;;24.00;86.50;;;;;;5065557;28;20456;-76
2023/10/12 12:57:17;;;;;;;12.67;4.27;;;23.80;82.20;;;;;;5065537;28;20723;-76
2023/10/12 12:59:43;;;;;;;9.10;4.40;;;23.80;83.50;;;;;;5067291;28;20194;-76
2023/10/12 13:02:08;;;;;;;19.03;4.63;;;23.70;82.90;;;;;;5065692;28;20241;-76
2023/10/12 13:04:35;;;;;;;10.83;4.97;;;23.70;83.70;;;;;;5065946;28;20214;-75
2023/10/12 13:07:08;;;;;;;16.07;4.67;;;23.70;83.40;;;;;;5067461;28;20205;-75
2023/10/12 13:09:36;;;;;;;12.40;4.97;;;23.70;85.50;;;;;;5050282;28;20423;-75
2023/10/12 13:12:05;;;;;;;11.00;4.30;;;23.70;85.20;;;;;;5067775;28;20420;-76
2023/10/12 13:14:31;;;;;;;8.77;3.50;;;23.70;85.90;;;;;;5066415;28;20928;-75
2023/10/12 13:16:57;;;;;;;9.40;4.67;;;23.80;87.30;;;;;;5067069;28;20449;-73
2023/10/12 13:19:24;;;;;;;10.43;5.20;;;23.80;88.10;;;;;;5071458;28;20504;-75
2023/10/12 13:21:50;;;;;;;12.33;5.10;;;23.80;87.40;;;;;;5069990;28;20424;-76
2023/10/12 13:24:15;;;;;;;11.70;4.83;;;23.70;88.20;;;;;;5052703;28;20988;-74
2023/10/12 13:26:43;;;;;;;12.33;4.50;;;23.60;87.20;;;;;;5069681;28;20207;-75
2023/10/12 13:29:13;;;;;;;13.30;4.93;;;23.60;87.40;;;;;;5070654;28;20182;-76
2023/10/12 13:31:39;;;;;;;7.80;4.23;;;23.50;88.10;;;;;;5053128;28;20461;-74
2023/10/12 13:34:05;;;;;;;7.07;4.40;;;23.40;87.30;;;;;;5069592;28;20441;-75
2023/10/12 13:36:32;;;;;;;7.90;3.70;;;23.40;88.10;;;;;;5069040;28;20458;-74
2023/10/12 13:38:59;;;;;;;9.87;3.87;;;23.30;85.30;;;;;;5070381;28;20502;-74
2023/10/12 13:41:25;;;;;;;7.27;4.30;;;23.20;86.30;;;;;;5070097;28;21343;-75
2023/10/12 13:43:51;;;;;;;12.07;4.27;;;23.20;86.80;;;;;;5068293;28;20572;-75
2023/10/12 13:46:16;;;;;;;11.40;4.30;;;23.10;85.40;;;;;;5069925;28;20210;-75
2023/10/12 13:48:42;;;;;;;7.73;4.40;;;23.10;85.10;;;;;;5068767;28;20206;-73
2023/10/12 13:51:10;;;;;;;10.47;4.27;;;23.00;85.10;;;;;;5070183;28;20474;-72
2023/10/12 13:53:36;;;;;;;9.20;4.37;;;23.10;83.60;;;;;;5069886;28;20202;-69
2023/10/12 13:56:09;;;;;;;13.73;4.20;;;23.20;85.10;;;;;;5070302;28;20578;-72
2023/10/12 13:58:36;;;;;;;9.87;4.27;;;23.10;84.70;;;;;;5070175;28;20842;-72
2023/10/12 14:01:04;;;;;;;9.60;4.07;;;23.10;84.70;;;;;;5069847;28;20444;-72
2023/10/12 14:03:34;;;;;;;13.60;5.13;;;23.10;83.60;;;;;;5070239;28;20459;-72
2023/10/12 14:06:01;;;;;;;8.03;4.33;;;23.10;84.70;;;;;;5070188;28;20917;-73
2023/10/12 14:08:28;;;;;;;12.10;3.63;;;23.10;84.10;;;;;;5070108;28;20426;-71
2023/10/12 14:10:54;;;;;;;10.60;4.47;;;23.10;84.30;;;;;;5070213;28;20421;-73
2023/10/12 14:13:20;;;;;;;8.37;3.50;;;23.20;84.50;;;;;;5069886;28;20557;-72
2023/10/12 14:15:47;;;;;;;12.47;3.90;;;23.20;83.50;;;;;;5070065;28;20573;-74
2023/10/12 14:18:17;;;;;;;15.30;4.23;;;23.20;82.40;;;;;;5069920;28;20182;-76
2023/10/12 14:20:44;;;;;;;8.47;4.27;;;23.20;81.40;;;;;;5069661;28;20473;-75
2023/10/12 14:23:10;;;;;;;7.00;4.53;;;23.30;84.80;;;;;;5067697;28;20432;-76
2023/10/12 14:25:38;;;;;;;8.90;3.83;;;23.30;82.70;;;;;;5067945;28;20478;-74
2023/10/12 14:28:05;;;;;;;12.53;3.70;;;23.20;81.60;;;;;;5069181;28;20435;-74
2023/10/12 14:30:32;;;;;;;8.70;3.97;;;23.10;81.10;;;;;;5067858;28;20429;-75
2023/10/12 14:33:02;;;;;;;10.50;4.50;;;23.20;81.00;;;;;;5067249;28;20428;-74
2023/10/12 14:35:36;;;;;;;6.23;3.60;;;23.10;81.80;;;;;;5068606;28;20520;-74
2023/10/12 14:38:06;;;;;;;13.13;5.00;;;23.10;82.40;;;;;;5068496;28;21034;-75
2023/10/12 14:40:32;;;;;;;10.07;4.20;;;23.10;81.70;;;;;;5068843;28;20439;-73
2023/10/12 14:43:05;;;;;;;13.63;4.70;;;23.00;81.80;;;;;;5068435;28;20423;-74
2023/10/12 14:45:32;;;;;;;6.97;4.07;;;23.00;80.00;;;;;;5051173;28;20520;-75
2023/10/12 14:47:59;;;;;;;8.50;3.93;;;23.10;80.40;;;;;;5067285;28;20986;-75
2023/10/12 14:50:24;;;;;;;8.33;4.07;;;23.00;80.50;;;;;;5068554;28;20796;-74
2023/10/12 14:52:54;;;;;;;4.40;3.33;;;23.00;79.60;;;;;;5068269;28;20434;-74
2023/10/12 14:55:20;;;;;;;11.10;3.83;;;23.00;81.30;;;;;;5068832;28;20233;-75
2023/10/12 14:57:49;;;;;;;8.47;3.60;;;23.00;80.10;;;;;;5068310;28;20429;-73
2023/10/12 15:00:22;;;;;;;8.60;4.03;;;23.00;81.60;;;;;;5067914;28;20426;-75
2023/10/12 15:02:57;;;;;;;8.00;3.60;;;23.00;81.20;;;;;;5069299;28;20486;-76
2023/10/12 15:05:32;;;;;;;7.90;4.07;;;23.00;81.60;;;;;;5067786;28;20489;-76
2023/10/12 15:07:58;;;;;;;10.07;4.07;;;23.00;82.30;;;;;;5067640;28;20517;-75
2023/10/12 15:10:25;;;;;;;7.30;4.50;;;23.00;81.50;;;;;;5069215;28;20980;-76
2023/10/12 15:12:51;;;;;;;10.20;3.80;;;23.00;82.60;;;;;;5067722;28;20432;-75
2023/10/12 15:15:28;;;;;;;5.33;3.90;;;23.00;81.70;;;;;;5068841;28;20438;-75
2023/10/12 15:17:55;;;;;;;8.33;3.87;;;23.00;81.80;;;;;;5067715;28;20839;-75
2023/10/12 15:20:26;;;;;;;14.10;3.87;;;23.00;82.40;;;;;;5067535;28;20955;-76
2023/10/12 15:22:52;;;;;;;9.10;3.53;;;23.00;81.90;;;;;;5067973;28;20452;-75
2023/10/12 15:25:19;;;;;;;17.60;4.37;;;23.00;82.50;;;;;;5067341;28;20517;-75